Wellsville, New York
Current Conditions -  °F | °C
As of 11:56 PM on Friday 24 Oct 2014 (Local Time) from KELZ Reporting Station
Few Clouds Few Clouds  
Wind Chill: 38°   Ceiling: Unl
Heat Index: 43°   Visibility: 10mi
Dew Point: 34°   Wind: 8mph
Humidity: 71%   Direction: 280°W
Pressure: 29.96"   Gusts: NA
Location:  42.13°N, 77.96°W
Report Text: KELZ 250356Z AUTO 28007KT 10SM FEW048 06/01 A2996 RMK AO2 SLP151 T00610011
Loading
Personal Weather Stations






























Interactive Weather Map
Tropical Storm Tracking
New forecast layout! Learn more

10-Day Weather Forecast

Advertisements
Track Severe Weather on mobile